Dayton, OH (45415)

11:02 AM EDT on July 21, 2017 (GMT -0400)
Turtle Rock | | Change Station

Elev 971 ft 39.85 °N, 84.26 °W | Updated 25 seconds ago

Rain
Rain
72.6 °F
Feels Like 72.6 °F
N
0.0
Wind Variable Wind from ESE

Today
High -- | Low -- °F
--% Chance of Precip.
Yesterday
High -- | Low -- °F
Precip. -- in
Pressure 29.99 in
Visibility 10.0 miles
Clouds Few 4500 ft
Scattered Clouds 8500 ft
Mostly Cloudy 10000 ft
Mostly Cloudy 20000 ft
Dew Point 72 °F
Humidity 98%
Rainfall 0.35 in
Snow Depth Not available.
6:26 AM 9:00 PM
Waning Crescent, 5% visible
METAR KDAY 211456Z 16006KT 10SM FEW045 SCT085 BKN100 BKN200 23/21 A3001 RMK AO2 RAE40 SLP153 P0001 60015 T02280211 58015
Pressure 29.99 in
Visibility 10.0 miles
Clouds Few 4500 ft
Scattered Clouds 8500 ft
Mostly Cloudy 10000 ft
Mostly Cloudy 20000 ft
Dew Point 72 °F
Humidity 98%
Rainfall 0.35 in
Snow Depth Not available.
6:26 AM 9:00 PM
Waning Crescent, 5% visible
METAR KDAY 211456Z 16006KT 10SM FEW045 SCT085 BKN100 BKN200 23/21 A3001 RMK AO2 RAE40 SLP153 P0001 60015 T02280211 58015

Get Severe Weather Alerts

Thanks for signing up!

Be on the lookout for a verification email in your inbox.

You'll start receiving the daily forecast at 6 AM.

×

10-Day Weather Forecast

Almanac

Astronomy

Jul. 21, 2017 Rise Set
Actual Time
Civil Twilight
Nautical Twilight
Astronomical Twilight
Moon
Length of Visible Light
Length of Day
Tomorrow will be .
, % of the Moon is Illuminated

Today's Extremes

State Highs State Lows

Community

WunderPhotos

Category 6

Welcome to Category 6. This is the collective home for Weather Underground's featured writeups by Dr. Jeff Masters (right), Bob Henson (left), Chris Burt, and other regular contributors.

Nearby

Air Quality

  Air Quality AQ Index Pollutant
Not available.

Snow Depth

Station Depth Elevation

Earthquake Activity

City Distance Mag. Time & Date
Minimum magnitude displayed is 2.5.

Coastal Water Temperatures

Place Temperature

Stations

Nearby Weather Stations

Station Location Temp. Windchill Dew Point Humidity Wind Precip. Elev Updated Type
                   

Watches & Warnings

There are currently no watches in effect.